Terminal Aerodrome Forecast
Issued by NWS

Home | Current Version | Previous Version | Text Only | Print | Product List | Glossary On
Versions: 1 2 3 4 5 6 7 8 9 10 11 12 13 14 15 16 17 18 19 20 21 22 23 24 25 26
000
FTUS46 KMTR 302300
TAFSFO
TAF
KSFO 302320Z 3100/0106 28019G25KT P6SM FEW015
     FM310300 28015KT P6SM SCT010
     FM310500 28010KT P6SM BKN008
     FM310900 28006KT P6SM OVC006
     FM311800 28010KT P6SM SCT010 BKN200
     FM312000 28018G24KT P6SM FEW008 BKN200
     FM010400 28012KT P6SM BKN200=

USA.gov is the U.S. government's official web portal to all federal, state and local government web resources and services.